Time;durP1;ratioP1;P1;durP2;ratioP2;P2;SDS_P1;SDS_P2;PMS_P1;PMS_P2;Temp;Humidity;BMP_temperature;BMP_pressure;BME280_temperature;BME280_humidity;BME280_pressure;Samples;Min_cycle;Max_cycle;Signal;HPM_P1;HPM_P2
2021/07/10 09:28:36;;;;;;;17.77;11.60;;;;;;;23.00;47.57;101874.09;5087375;27;1305874;-75
2021/07/10 09:31:04;;;;;;;12.45;8.95;;;;;;;23.32;47.97;101871.81;5108994;28;20044;-76
2021/07/10 09:33:29;;;;;;;18.60;10.20;;;;;;;23.29;46.63;101869.50;4206975;28;10001497;-77
2021/07/10 09:35:59;;;;;;;14.02;10.25;;;;;;;23.20;46.90;101869.69;4995130;28;20507;-80
2021/07/10 09:38:26;;;;;;;15.70;10.90;;;;;;;23.10;46.67;101869.19;4994360;28;20104;-80
2021/07/10 09:41:01;;;;;;;15.05;9.52;;;;;;;23.19;46.97;101865.28;5024137;28;20470;-81
2021/07/10 09:43:28;;;;;;;17.17;10.57;;;;;;;23.44;46.20;101862.09;4992064;28;20084;-79
2021/07/10 09:45:55;;;;;;;12.65;9.57;;;;;;;23.81;45.51;101865.44;4984312;28;20456;-78
2021/07/10 09:48:33;;;;;;;12.70;9.88;;;;;;;23.92;46.77;101858.59;5043903;28;20421;-78
2021/07/10 09:51:18;;;;;;;13.85;10.57;;;;;;;24.65;42.38;101855.22;5058426;28;20091;-80
2021/07/10 09:54:05;;;;;;;15.10;10.55;;;;;;;25.51;41.29;101850.75;5029104;28;20030;-77
2021/07/10 09:56:35;;;;;;;30.33;10.52;;;;;;;26.73;40.33;101852.63;5030649;28;20116;-83
2021/07/10 09:59:15;;;;;;;15.07;9.23;;;;;;;27.69;36.74;101846.84;5047261;28;20406;-79
2021/07/10 10:01:41;;;;;;;12.00;10.20;;;;;;;27.90;39.00;101843.63;5048476;28;20195;-82
2021/07/10 10:04:26;;;;;;;11.85;9.32;;;;;;;27.86;36.68;101849.78;5049099;28;20612;-82
2021/07/10 10:06:52;;;;;;;10.80;9.00;;;;;;;27.28;38.43;101839.06;5047761;28;20029;-80
2021/07/10 10:10:36;;;;;;;9.00;7.72;;;;;;;26.04;37.73;101849.72;5047878;27;1944262;-79
2021/07/10 10:13:04;;;;;;;9.77;7.60;;;;;;;24.94;40.35;101845.78;5089730;28;20450;-79
2021/07/10 10:15:45;;;;;;;12.55;6.90;;;;;;;24.44;41.91;101842.63;4138664;28;10000685;-79
2021/07/10 10:18:14;;;;;;;8.23;6.95;;;;;;;24.28;41.65;101844.69;5048311;28;20412;-78
2021/07/10 10:22:10;;;;;;;8.98;6.72;;;;;;;24.15;43.57;101844.66;5041408;27;2010256;-82
2021/07/10 10:24:37;;;;;;;13.77;8.93;;;;;;;24.42;40.81;101841.97;5070303;28;20044;-77
2021/07/10 10:27:02;;;;;;;10.93;8.80;;;;;;;24.39;43.85;101842.41;5040727;28;20112;-80
2021/07/10 10:29:28;;;;;;;12.27;8.18;;;;;;;24.82;40.60;101839.31;5050866;28;20112;-80
2021/07/10 10:31:54;;;;;;;11.57;8.10;;;;;;;25.41;42.04;101839.44;5051657;28;20471;-78
2021/07/10 10:34:19;;;;;;;10.27;8.27;;;;;;;26.39;39.08;101832.91;5051622;28;20113;-81
2021/07/10 10:36:47;;;;;;;9.82;7.07;;;;;;;27.35;36.00;101833.59;5068661;28;20388;-78
2021/07/10 10:39:14;;;;;;;10.82;6.35;;;;;;;27.46;37.94;101823.78;5051776;28;20448;-77
2021/07/10 10:41:41;;;;;;;9.98;7.72;;;;;;;28.35;34.60;101825.13;5068345;28;20050;-79
2021/07/10 10:44:06;;;;;;;11.35;8.23;;;;;;;28.60;32.95;101823.03;5051227;28;20055;-81
2021/07/10 10:46:52;;;;;;;7.63;5.95;;;;;;;28.99;31.85;101826.16;5055168;28;20390;-88
2021/07/10 10:49:41;;;;;;;10.10;6.18;;;;;;;29.45;30.68;101814.56;4694767;28;22829;-84
2021/07/10 10:52:16;;;;;;;9.35;5.95;;;;;;;29.15;31.03;101807.31;4993016;28;20533;-81
2021/07/10 10:54:46;;;;;;;11.40;6.05;;;;;;;29.42;29.76;101807.66;5048334;28;20474;-79
2021/07/10 10:57:11;;;;;;;10.00;6.00;;;;;;;29.01;32.67;101802.09;5050717;28;20051;-81
2021/07/10 10:59:40;;;;;;;10.43;6.18;;;;;;;28.82;32.36;101800.56;5068212;28;20468;-77
2021/07/10 11:02:32;;;;;;;9.85;6.93;;;;;;;28.74;34.31;101799.03;5068859;28;20036;-78
2021/07/10 11:04:58;;;;;;;8.80;6.82;;;;;;;28.54;32.67;101788.38;5044970;28;20116;-75
2021/07/10 11:07:29;;;;;;;11.65;8.05;;;;;;;28.71;33.12;101788.56;5050868;28;20473;-78
2021/07/10 11:10:07;;;;;;;10.18;7.03;;;;;;;28.67;34.21;101785.44;5050583;28;20431;-78
2021/07/10 11:12:52;;;;;;;12.27;8.07;;;;;;;28.46;33.09;101780.53;5067748;28;20410;-78
2021/07/10 11:15:35;;;;;;;8.30;6.10;;;;;;;27.94;34.34;101781.09;5050350;28;20024;-80
2021/07/10 11:18:02;;;;;;;10.50;6.82;;;;;;;27.61;36.99;101782.41;5068760;28;20033;-85
2021/07/10 11:20:47;;;;;;;9.63;7.32;;;;;;;27.52;36.51;101789.25;5017410;28;20515;-81
2021/07/10 11:23:28;;;;;;;9.38;7.30;;;;;;;26.98;37.27;101784.34;5067280;28;20457;-81
2021/07/10 11:26:00;;;;;;;9.32;6.70;;;;;;;27.40;37.66;101778.25;5066425;28;20028;-79
2021/07/10 11:28:28;;;;;;;10.25;7.95;;;;;;;27.61;34.46;101771.47;5051099;28;20527;-79
2021/07/10 11:30:58;;;;;;;9.50;7.38;;;;;;;27.60;36.82;101769.78;5067179;28;20059;-80
2021/07/10 11:33:54;;;;;;;8.30;7.33;;;;;;;27.41;37.19;101767.09;4066513;28;10000956;-75
2021/07/10 11:36:33;;;;;;;10.38;7.78;;;;;;;26.90;37.73;101771.84;5020883;28;20768;-75
2021/07/10 11:38:58;;;;;;;11.70;8.23;;;;;;;26.87;37.83;101765.97;5014934;28;20080;-77
2021/07/10 11:41:28;;;;;;;12.30;8.20;;;;;;;26.58;39.64;101760.16;5030119;28;20042;-74
2021/07/10 11:44:10;;;;;;;12.50;8.32;;;;;;;26.74;40.09;101767.78;5013965;28;20724;-76
2021/07/10 11:46:59;;;;;;;12.55;7.82;;;;;;;26.89;38.93;101772.91;5031625;28;20515;-79
2021/07/10 11:49:40;;;;;;;11.35;8.07;;;;;;;27.25;38.07;101773.16;5034535;28;20056;-78
2021/07/10 11:52:14;;;;;;;9.00;6.70;;;;;;;27.64;37.74;101764.72;5034357;28;20481;-73
2021/07/10 11:54:47;;;;;;;13.48;8.18;;;;;;;27.94;36.94;101759.22;5016844;28;20385;-77
2021/07/10 11:57:13;;;;;;;13.13;7.88;;;;;;;27.88;37.06;101763.72;5025904;28;20405;-78
2021/07/10 11:59:38;;;;;;;14.38;8.38;;;;;;;27.36;38.30;101752.44;5013946;28;20037;-83
2021/07/10 12:02:17;;;;;;;14.02;9.13;;;;;;;27.22;39.17;101754.47;4996719;28;20070;-77
2021/07/10 12:05:01;;;;;;;24.27;12.25;;;;;;;26.63;42.97;101746.66;5013716;28;20037;-78
2021/07/10 12:07:27;;;;;;;21.35;13.38;;;;;;;25.80;45.71;101754.00;5014008;28;20065;-77
2021/07/10 12:09:52;;;;;;;21.83;15.25;;;;;;;25.13;47.40;101756.97;4996132;28;20065;-76
2021/07/10 12:12:18;;;;;;;21.85;15.38;;;;;;;24.33;49.25;101753.50;5014212;28;20088;-75
2021/07/10 12:14:57;;;;;;;22.08;15.00;;;;;;;23.77;51.75;101759.03;5013592;28;20034;-77
2021/07/10 12:17:23;;;;;;;26.58;17.02;;;;;;;23.27;52.25;101755.69;4996433;28;20528;-77
2021/07/10 12:19:49;;;;;;;23.05;15.55;;;;;;;22.85;53.21;101750.19;5012999;28;20045;-78
2021/07/10 12:22:14;;;;;;;27.05;17.70;;;;;;;22.56;54.54;101750.41;5016443;28;20462;-76
2021/07/10 12:24:40;;;;;;;27.13;17.02;;;;;;;22.44;54.62;101747.41;5016780;28;20034;-75
2021/07/10 12:27:15;;;;;;;28.20;18.13;;;;;;;22.21;55.15;101748.41;5013855;28;20398;-78
2021/07/10 12:29:50;;;;;;;26.65;17.30;;;;;;;22.22;55.55;101750.09;4996240;28;20033;-78
2021/07/10 12:32:16;;;;;;;22.75;18.02;;;;;;;22.09;55.59;101748.09;4996387;28;20029;-77
2021/07/10 12:34:46;;;;;;;28.08;17.90;;;;;;;21.92;56.83;101752.09;5012259;28;20394;-76
2021/07/10 12:37:11;;;;;;;29.58;18.17;;;;;;;21.74;56.52;101753.38;5014299;28;20026;-78
2021/07/10 12:39:37;;;;;;;32.22;19.00;;;;;;;21.53;56.35;101756.88;5012567;28;20103;-79
2021/07/10 12:42:04;;;;;;;57.40;18.15;;;;;;;21.42;57.64;101760.03;5012869;28;20389;-78
2021/07/10 12:44:33;;;;;;;22.75;15.75;;;;;;;21.49;56.87;101755.53;4979158;28;20025;-80
2021/07/10 12:47:03;;;;;;;24.65;16.80;;;;;;;21.58;56.51;101756.31;4996424;28;20120;-75
2021/07/10 12:49:35;;;;;;;27.50;18.53;;;;;;;21.58;58.47;101757.13;4995833;28;20419;-75
2021/07/10 12:52:01;;;;;;;25.73;17.95;;;;;;;21.53;61.60;101751.47;5013727;28;20284;-76
2021/07/10 12:54:35;;;;;;;29.58;18.50;;;;;;;21.37;60.84;101755.19;5013666;28;20494;-75
2021/07/10 12:57:30;;;;;;;26.58;18.45;;;;;;;21.29;60.78;101756.13;5013092;28;20172;-75
2021/07/10 12:59:56;;;;;;;28.42;19.27;;;;;;;21.18;60.87;101751.16;4997594;28;20116;-73
2021/07/10 13:02:23;;;;;;;25.35;17.10;;;;;;;21.20;59.95;101757.25;5014040;28;20038;-74
2021/07/10 13:04:48;;;;;;;27.08;18.30;;;;;;;21.13;61.13;101750.91;4998764;28;20033;-74
2021/07/10 13:07:28;;;;;;;26.95;18.00;;;;;;;21.06;62.08;101750.81;5016451;28;20593;-73
2021/07/10 13:09:54;;;;;;;25.20;16.08;;;;;;;21.08;61.40;101756.06;5012972;28;20042;-74
2021/07/10 13:12:45;;;;;;;31.60;19.00;;;;;;;20.86;61.61;101752.41;5014421;28;20462;-75
2021/07/10 13:15:12;;;;;;;30.92;18.83;;;;;;;20.64;61.26;101752.22;5012750;28;20029;-74
2021/07/10 13:17:38;;;;;;;30.30;18.92;;;;;;;20.48;62.42;101747.84;4995773;28;20034;-74
2021/07/10 13:20:36;;;;;;;30.65;19.40;;;;;;;20.29;62.08;101749.16;4994789;28;20088;-74
2021/07/10 13:23:01;;;;;;;26.38;18.08;;;;;;;20.10;61.74;101755.91;4989914;28;20385;-74
2021/07/10 13:25:45;;;;;;;30.13;19.95;;;;;;;19.83;65.41;101754.56;5013022;28;20046;-74
2021/07/10 13:28:28;;;;;;;36.70;21.55;;;;;;;19.52;65.48;101761.59;4994773;28;20068;-74
2021/07/10 13:30:55;;;;;;;42.80;24.63;;;;;;;19.22;68.05;101759.72;5011976;28;20030;-74
2021/07/10 13:33:28;;;;;;;40.85;24.27;;;;;;;19.01;69.31;101751.16;4978651;28;20060;-74
2021/07/10 13:36:26;;;;;;;47.88;27.25;;;;;;;18.76;72.09;101761.13;4978436;28;20065;-76
2021/07/10 13:38:59;;;;;;;41.75;26.75;;;;;;;18.63;70.38;101760.81;5004128;28;20038;-76
2021/07/10 13:41:27;;;;;;;50.55;29.95;;;;;;;18.50;73.47;101764.03;5012674;28;20381;-75
2021/07/10 13:44:10;;;;;;;44.20;25.92;;;;;;;18.27;72.12;101763.84;5012303;28;20038;-76
2021/07/10 13:46:57;;;;;;;43.05;27.75;;;;;;;18.07;73.59;101761.47;5012597;28;20051;-75
2021/07/10 13:49:43;;;;;;;49.60;30.77;;;;;;;17.89;74.09;101761.59;5012525;28;20120;-75
2021/07/10 13:52:15;;;;;;;59.38;33.20;;;;;;;17.78;77.07;101753.81;5011518;28;20037;-76
2021/07/10 13:54:51;;;;;;;53.00;32.67;;;;;;;17.70;76.32;101767.25;5012299;28;20048;-75
2021/07/10 13:57:25;;;;;;;39.90;26.55;;;;;;;17.66;76.05;101765.88;4994117;28;20105;-74
2021/07/10 13:59:54;;;;;;;58.10;33.63;;;;;;;17.55;76.82;101767.84;5012124;28;20045;-74
2021/07/10 14:02:20;;;;;;;67.75;37.05;;;;;;;17.44;79.30;101769.00;5012417;28;20386;-74
2021/07/10 14:05:02;;;;;;;60.90;35.42;;;;;;;17.47;80.15;101767.00;4994791;28;20064;-74
2021/07/10 14:07:27;;;;;;;75.07;41.58;;;;;;;17.49;80.77;101752.38;5012641;28;20034;-74
2021/07/10 14:09:53;;;;;;;84.25;42.78;;;;;;;17.51;80.82;101757.59;5012358;28;20077;-74
2021/07/10 14:12:18;;;;;;;62.47;34.67;;;;;;;17.49;79.57;101754.22;4994537;28;20030;-75
2021/07/10 14:14:44;;;;;;;63.88;37.97;;;;;;;17.47;79.99;101767.84;5010930;28;20496;-75
2021/07/10 14:17:09;;;;;;;72.35;39.45;;;;;;;17.49;80.55;101768.50;5011958;28;20045;-76
2021/07/10 14:19:35;;;;;;;76.70;41.22;;;;;;;17.51;80.95;101754.91;4994963;28;20087;-76
2021/07/10 14:22:00;;;;;;;76.80;41.63;;;;;;;17.53;81.34;101761.81;5011647;28;20409;-76
2021/07/10 14:24:25;;;;;;;72.22;38.45;;;;;;;17.54;80.46;101759.94;5012203;28;20049;-77
2021/07/10 14:26:51;;;;;;;65.72;36.85;;;;;;;17.55;79.67;101765.16;5011080;28;20056;-76
2021/07/10 14:29:16;;;;;;;69.03;39.53;;;;;;;17.56;80.21;101752.56;5011748;28;20067;-76
2021/07/10 14:31:42;;;;;;;83.30;43.72;;;;;;;17.59;81.40;101753.09;4994776;28;20540;-75
2021/07/10 14:34:07;;;;;;;76.50;41.78;;;;;;;17.63;79.45;101754.44;5011777;28;20045;-75
2021/07/10 14:36:32;;;;;;;82.53;43.55;;;;;;;17.66;80.35;101747.91;4994736;28;20065;-75
2021/07/10 14:38:58;;;;;;;77.78;41.42;;;;;;;17.70;79.82;101749.25;4994817;28;20037;-76
2021/07/10 14:41:23;;;;;;;75.28;40.25;;;;;;;17.75;79.59;101749.59;4994828;28;20034;-75
2021/07/10 14:43:49;;;;;;;90.43;44.83;;;;;;;17.76;81.07;101745.06;4994597;28;20061;-76
2021/07/10 14:46:16;;;;;;;78.78;40.85;;;;;;;17.76;80.29;101743.19;5011512;28;20194;-76
2021/07/10 14:48:42;;;;;;;77.22;40.35;;;;;;;17.74;80.20;101741.69;5012317;28;20042;-76
2021/07/10 14:51:07;;;;;;;69.57;38.67;;;;;;;17.79;80.00;101745.59;5011172;28;20409;-76
2021/07/10 14:53:32;;;;;;;68.90;37.58;;;;;;;17.91;79.81;101747.97;5011891;28;20450;-76
2021/07/10 14:55:58;;;;;;;65.18;38.33;;;;;;;18.04;79.12;101748.34;5011877;28;20038;-76
2021/07/10 14:58:24;;;;;;;63.22;38.40;;;;;;;18.19;78.03;101745.81;5011312;28;20038;-76
2021/07/10 15:00:49;;;;;;;70.22;39.38;;;;;;;18.33;78.89;101741.63;5011867;28;20470;-78
2021/07/10 15:03:14;;;;;;;63.22;37.97;;;;;;;18.46;78.90;101743.81;5011540;28;20072;-78
2021/07/10 15:05:40;;;;;;;55.25;33.88;;;;;;;18.60;77.05;101743.13;4994549;28;20481;-76
2021/07/10 15:08:05;;;;;;;54.53;34.17;;;;;;;18.69;76.19;101746.66;5013766;28;20037;-76
2021/07/10 15:10:31;;;;;;;53.88;33.67;;;;;;;18.82;77.29;101743.44;5015708;28;20477;-77
2021/07/10 15:12:56;;;;;;;52.13;33.35;;;;;;;18.97;76.95;101736.38;5015824;28;20521;-80
2021/07/10 15:15:21;;;;;;;50.13;32.92;;;;;;;19.12;76.08;101736.50;4997488;28;20053;-77
2021/07/10 15:17:48;;;;;;;54.13;33.58;;;;;;;19.22;76.66;101732.75;5015877;28;20034;-76
2021/07/10 15:20:16;;;;;;;48.60;31.63;;;;;;;19.35;75.52;101736.56;5014722;28;20172;-76
2021/07/10 15:22:42;;;;;;;44.72;27.83;;;;;;;19.43;73.88;101732.13;5015557;28;20524;-76
2021/07/10 15:25:12;;;;;;;43.83;28.00;;;;;;;19.47;74.61;101725.38;5014746;28;20030;-76
2021/07/10 15:27:37;;;;;;;43.17;27.27;;;;;;;19.48;74.87;101732.44;5015225;28;20044;-77
2021/07/10 15:30:06;;;;;;;39.03;25.70;;;;;;;19.52;74.35;101734.59;5015088;28;20529;-77
2021/07/10 15:32:31;;;;;;;36.35;25.35;;;;;;;19.59;73.55;101726.66;4997685;28;20034;-74
2021/07/10 15:34:57;;;;;;;36.17;26.23;;;;;;;19.66;73.76;101724.06;5015163;28;20038;-78
2021/07/10 15:37:22;;;;;;;29.10;19.65;;;;;;;19.56;70.48;101729.72;4997171;28;20390;-78
2021/07/10 15:39:47;;;;;;;30.27;21.50;;;;;;;19.44;70.03;101728.44;5014968;28;20033;-78
2021/07/10 15:42:13;;;;;;;33.25;21.83;;;;;;;19.38;72.28;101720.00;5014386;28;20061;-78
2021/07/10 15:44:38;;;;;;;32.58;23.58;;;;;;;19.26;72.53;101728.66;5014899;28;20160;-78
2021/07/10 15:47:04;;;;;;;34.53;24.20;;;;;;;19.22;72.50;101730.88;5015093;28;20033;-78
2021/07/10 15:49:31;;;;;;;37.72;27.00;;;;;;;19.15;74.90;101733.44;5014908;28;20428;-78
2021/07/10 15:51:56;;;;;;;43.08;28.98;;;;;;;19.01;72.77;101721.50;4997631;28;20128;-78
2021/07/10 15:54:22;;;;;;;41.58;28.17;;;;;;;18.89;73.61;101725.59;5014225;28;20113;-78
2021/07/10 15:56:47;;;;;;;48.92;29.95;;;;;;;18.87;73.96;101716.84;4997251;28;20117;-79
2021/07/10 15:59:14;;;;;;;47.70;30.00;;;;;;;18.83;73.35;101718.16;5013929;28;20432;-80
2021/07/10 16:01:40;;;;;;;36.42;24.50;;;;;;;18.90;72.87;101715.63;5014498;28;20087;-78
2021/07/10 16:04:06;;;;;;;41.22;28.30;;;;;;;18.71;73.92;101712.28;5014869;28;20164;-76
2021/07/10 16:06:31;;;;;;;39.70;26.65;;;;;;;18.60;74.16;101720.72;5014066;28;20124;-75
2021/07/10 16:08:57;;;;;;;47.60;29.83;;;;;;;18.54;76.00;101719.56;5014736;28;20037;-74
2021/07/10 16:11:22;;;;;;;46.63;28.42;;;;;;;18.46;75.52;101719.56;5014061;28;20038;-74
2021/07/10 16:13:47;;;;;;;44.63;28.50;;;;;;;18.41;76.20;101712.00;4996671;28;20037;-75
2021/07/10 16:16:13;;;;;;;48.90;30.73;;;;;;;18.37;76.77;101717.91;5013749;28;20694;-76
2021/07/10 16:18:38;;;;;;;49.55;29.60;;;;;;;18.36;76.33;101717.03;5014232;28;20033;-75
2021/07/10 16:21:04;;;;;;;60.05;34.38;;;;;;;18.31;77.50;101722.94;5013912;28;20061;-75
2021/07/10 16:23:29;;;;;;;58.05;33.80;;;;;;;18.26;76.53;101719.09;5013495;28;20051;-75
2021/07/10 16:25:54;;;;;;;56.75;34.13;;;;;;;18.26;77.53;101713.69;5014098;28;20034;-75
2021/07/10 16:28:20;;;;;;;55.20;33.17;;;;;;;18.26;76.47;101714.53;5013272;28;20060;-76
2021/07/10 16:30:45;;;;;;;49.75;32.30;;;;;;;18.26;75.30;101711.84;4996878;28;20042;-74
2021/07/10 16:33:11;;;;;;;52.60;30.95;;;;;;;18.25;74.59;101712.00;5014094;28;20030;-75
2021/07/10 16:35:36;;;;;;;52.80;33.95;;;;;;;18.19;77.34;101708.13;5013386;28;20037;-75
2021/07/10 16:38:02;;;;;;;62.70;36.28;;;;;;;18.04;75.44;101704.44;5013893;28;20449;-76
2021/07/10 16:40:28;;;;;;;53.22;34.85;;;;;;;18.01;76.37;101705.59;5013311;28;20038;-75
2021/07/10 16:42:54;;;;;;;61.70;36.30;;;;;;;18.04;77.14;101707.13;5013810;28;20034;-75
2021/07/10 16:45:20;;;;;;;63.08;35.03;;;;;;;18.18;76.42;101709.13;5013247;28;20037;-75
2021/07/10 16:47:45;;;;;;;59.20;35.60;;;;;;;18.28;76.37;101700.88;5013909;28;20108;-77
2021/07/10 16:50:13;;;;;;;58.78;34.60;;;;;;;18.39;75.84;101695.16;5013746;28;20038;-76
2021/07/10 16:52:39;;;;;;;56.75;33.58;;;;;;;18.47;75.17;101705.91;5013103;28;20033;-77
2021/07/10 16:55:07;;;;;;;53.38;33.65;;;;;;;18.56;75.50;101698.66;5013529;28;20580;-76
2021/07/10 16:57:33;;;;;;;60.38;32.65;;;;;;;18.56;73.96;101698.66;5013186;28;20037;-75
2021/07/10 16:59:58;;;;;;;54.13;32.47;;;;;;;18.56;75.19;101695.97;5013508;28;20034;-77
2021/07/10 17:02:24;;;;;;;52.97;32.95;;;;;;;18.47;74.00;101694.31;5013201;28;20116;-75
2021/07/10 17:04:49;;;;;;;55.95;33.58;;;;;;;18.43;74.26;101699.19;5013437;28;20041;-75
2021/07/10 17:07:14;;;;;;;49.40;30.30;;;;;;;18.37;74.17;101693.66;5013568;28;20038;-75
2021/07/10 17:09:40;;;;;;;49.65;33.20;;;;;;;18.26;74.31;101689.44;5012808;28;20034;-75
2021/07/10 17:12:06;;;;;;;48.60;28.92;;;;;;;18.19;73.66;101683.88;5013390;28;20041;-75
2021/07/10 17:14:31;;;;;;;48.88;29.70;;;;;;;18.11;74.31;101684.72;4995296;28;20037;-75
2021/07/10 17:16:56;;;;;;;48.88;30.13;;;;;;;18.08;76.02;101685.06;5014048;28;20477;-75
2021/07/10 17:19:22;;;;;;;49.65;29.83;;;;;;;18.02;74.84;101677.66;4995285;28;20030;-76
2021/07/10 17:21:47;;;;;;;49.10;29.05;;;;;;;17.97;75.04;101672.78;5012702;28;20060;-74
2021/07/10 17:24:13;;;;;;;53.05;31.27;;;;;;;17.97;74.99;101672.78;5013111;28;20050;-76
2021/07/10 17:26:40;;;;;;;44.63;27.92;;;;;;;18.09;74.68;101667.06;5012944;28;20030;-75
2021/07/10 17:29:07;;;;;;;42.28;26.75;;;;;;;18.12;73.38;101672.97;5013014;28;20096;-75
2021/07/10 17:31:37;;;;;;;42.75;25.75;;;;;;;18.31;73.39;101670.91;5011964;28;20084;-75
2021/07/10 17:34:07;;;;;;;43.67;26.20;;;;;;;18.44;73.13;101667.72;5013019;28;20026;-75
2021/07/10 17:36:34;;;;;;;43.65;26.25;;;;;;;18.54;74.52;101668.38;5012382;28;20038;-75
2021/07/10 17:38:59;;;;;;;37.47;23.90;;;;;;;18.63;73.99;101670.03;5012741;28;20030;-74
2021/07/10 17:41:25;;;;;;;36.80;23.17;;;;;;;18.75;73.36;101672.34;5011909;28;20489;-74
2021/07/10 17:43:51;;;;;;;32.88;22.05;;;;;;;18.78;72.01;101672.00;4995227;28;20034;-74
2021/07/10 17:46:16;;;;;;;37.70;22.98;;;;;;;18.88;73.85;101680.75;5012880;28;20061;-74
2021/07/10 17:48:41;;;;;;;40.08;23.42;;;;;;;18.89;73.09;101677.06;5012041;28;20042;-73
2021/07/10 17:51:09;;;;;;;32.10;21.80;;;;;;;18.77;72.78;101684.63;5013365;28;20073;-74
2021/07/10 17:53:34;;;;;;;30.08;21.50;;;;;;;18.67;72.07;101673.22;5011990;28;20056;-74
2021/07/10 17:56:00;;;;;;;32.10;20.15;;;;;;;18.55;72.02;101677.28;5012430;28;20506;-73
2021/07/10 17:58:25;;;;;;;33.63;21.77;;;;;;;18.40;72.27;101677.13;5011831;28;20033;-76
2021/07/10 18:00:51;;;;;;;34.03;21.92;;;;;;;18.25;73.15;101683.19;5012569;28;20492;-74
2021/07/10 18:03:16;;;;;;;35.90;23.27;;;;;;;18.17;74.24;101680.53;5012513;28;20477;-73
2021/07/10 18:05:41;;;;;;;35.15;23.58;;;;;;;18.11;75.16;101683.91;5011747;28;20117;-73
2021/07/10 18:08:07;;;;;;;35.80;23.00;;;;;;;18.04;74.96;101682.88;5012266;28;20030;-74
2021/07/10 18:10:32;;;;;;;33.63;22.23;;;;;;;18.00;75.32;101678.84;5011518;28;20029;-73
2021/07/10 18:12:58;;;;;;;40.33;22.27;;;;;;;18.00;75.69;101689.59;5012515;28;20030;-74
2021/07/10 18:15:23;;;;;;;30.55;20.77;;;;;;;17.99;75.07;101688.78;5012162;28;20042;-73
2021/07/10 18:17:49;;;;;;;30.77;20.10;;;;;;;17.98;74.41;101695.16;5011861;28;20030;-73
2021/07/10 18:20:15;;;;;;;31.27;21.45;;;;;;;17.89;73.88;101691.63;4994336;28;20128;-74
2021/07/10 18:22:41;;;;;;;28.77;19.13;;;;;;;17.80;74.81;101703.34;5011678;28;20080;-75
2021/07/10 18:25:09;;;;;;;24.98;17.95;;;;;;;17.71;75.17;101697.09;5012041;28;20453;-73
2021/07/10 18:27:35;;;;;;;28.48;19.42;;;;;;;17.61;76.55;101699.94;5011553;28;20038;-74
2021/07/10 18:30:01;;;;;;;29.08;18.50;;;;;;;17.53;75.29;101708.00;4994487;28;20065;-73
2021/07/10 18:32:26;;;;;;;27.73;19.52;;;;;;;17.48;76.69;101701.41;5012099;28;20038;-74
2021/07/10 18:34:52;;;;;;;31.55;20.55;;;;;;;17.40;76.32;101713.84;4993945;28;20080;-73
2021/07/10 18:37:17;;;;;;;24.27;17.80;;;;;;;17.35;76.46;101709.97;5012314;28;20114;-73
2021/07/10 18:39:42;;;;;;;30.52;18.08;;;;;;;17.28;76.22;101702.53;5011466;28;20117;-72
2021/07/10 18:42:08;;;;;;;25.40;17.38;;;;;;;17.24;76.94;101703.88;5012909;28;20033;-73
2021/07/10 18:44:33;;;;;;;30.98;18.42;;;;;;;17.20;78.02;101702.50;5015426;28;20080;-74
2021/07/10 18:46:59;;;;;;;26.92;18.75;;;;;;;17.14;78.03;101700.47;5016098;28;20060;-73
2021/07/10 18:49:24;;;;;;;29.27;18.27;;;;;;;17.04;77.91;101708.66;5015997;28;20116;-73
2021/07/10 18:51:50;;;;;;;24.92;17.70;;;;;;;16.94;77.36;101707.91;5015053;28;20129;-74
2021/07/10 18:54:15;;;;;;;29.13;17.48;;;;;;;16.86;77.72;101708.69;5015800;28;20474;-75
2021/07/10 18:56:41;;;;;;;32.22;17.13;;;;;;;16.80;77.24;101703.13;5014967;28;20335;-74
2021/07/10 18:59:07;;;;;;;27.75;18.23;;;;;;;16.74;78.36;101707.28;5015826;28;20474;-74
2021/07/10 19:01:32;;;;;;;31.23;19.27;;;;;;;16.68;78.52;101705.22;5015695;28;20034;-74
2021/07/10 19:03:58;;;;;;;27.35;16.95;;;;;;;16.63;78.67;101712.91;5014933;28;20052;-75
2021/07/10 19:06:24;;;;;;;23.40;16.35;;;;;;;16.61;79.13;101712.22;5015470;28;20060;-74
2021/07/10 19:08:49;;;;;;;23.17;15.38;;;;;;;16.56;77.95;101710.03;5014705;28;20045;-74
2021/07/10 19:11:15;;;;;;;26.42;16.38;;;;;;;16.53;78.85;101704.97;5015656;28;20049;-75
2021/07/10 19:13:41;;;;;;;23.83;15.73;;;;;;;16.45;78.82;101702.22;5014834;28;20045;-74
2021/07/10 19:16:06;;;;;;;29.45;16.50;;;;;;;16.39;80.35;101715.28;5015379;28;20030;-74
2021/07/10 19:18:32;;;;;;;21.17;15.50;;;;;;;16.33;79.86;101707.84;5015378;28;20398;-75
2021/07/10 19:21:02;;;;;;;21.70;15.90;;;;;;;16.29;80.02;101713.69;5014470;28;20414;-74
2021/07/10 19:23:29;;;;;;;19.97;15.00;;;;;;;16.21;79.88;101712.63;5015123;28;20030;-74
2021/07/10 19:25:54;;;;;;;24.08;15.95;;;;;;;16.14;79.56;101711.53;5014778;28;20284;-76
2021/07/10 19:28:19;;;;;;;28.52;17.52;;;;;;;16.06;80.72;101708.78;5015469;28;20030;-76
2021/07/10 19:30:45;;;;;;;27.95;17.25;;;;;;;15.98;80.88;101714.09;5014551;28;20040;-75
2021/07/10 19:33:10;;;;;;;27.95;17.48;;;;;;;15.91;81.43;101715.69;5015034;28;20077;-75
2021/07/10 19:35:36;;;;;;;32.60;17.83;;;;;;;15.82;81.27;101712.94;5015134;28;20030;-74
2021/07/10 19:38:03;;;;;;;27.25;17.88;;;;;;;15.76;81.51;101710.81;4996855;28;20034;-74
2021/07/10 19:40:31;;;;;;;29.98;18.25;;;;;;;15.69;81.48;101715.94;5015152;28;20167;-74
2021/07/10 19:42:57;;;;;;;30.40;18.58;;;;;;;15.65;82.13;101716.41;5014376;28;20037;-75
2021/07/10 19:45:23;;;;;;;27.85;17.42;;;;;;;15.58;81.62;101718.00;5014865;28;20478;-74
2021/07/10 19:47:50;;;;;;;27.40;18.27;;;;;;;15.51;81.89;101721.28;5014188;28;20037;-74
2021/07/10 19:50:21;;;;;;;32.97;19.13;;;;;;;15.47;82.21;101719.88;5014765;28;20045;-74
2021/07/10 19:52:48;;;;;;;35.15;20.35;;;;;;;15.40;82.60;101720.63;5013563;28;20036;-75
2021/07/10 19:55:14;;;;;;;37.88;21.20;;;;;;;15.33;82.58;101717.69;5014825;28;20064;-73
2021/07/10 19:57:41;;;;;;;39.60;21.08;;;;;;;15.25;83.23;101721.13;5014719;28;20458;-74
2021/07/10 20:00:10;;;;;;;36.08;20.52;;;;;;;15.17;83.46;101718.34;4997061;28;20121;-73
2021/07/10 20:02:35;;;;;;;42.67;21.40;;;;;;;15.08;83.81;101720.09;5014672;28;20105;-72
2021/07/10 20:05:04;;;;;;;35.38;19.67;;;;;;;15.02;84.03;101725.16;5013848;28;20104;-73
2021/07/10 20:07:29;;;;;;;40.08;21.52;;;;;;;14.96;84.47;101737.34;5014493;28;20076;-73
2021/07/10 20:09:54;;;;;;;37.03;21.65;;;;;;;14.89;84.16;101731.69;4996267;28;20065;-73
2021/07/10 20:12:20;;;;;;;41.15;21.52;;;;;;;14.83;83.99;101729.63;5014648;28;20042;-73
2021/07/10 20:14:45;;;;;;;41.38;22.50;;;;;;;14.79;84.71;101738.91;5013869;28;20438;-74
2021/07/10 20:17:10;;;;;;;38.83;21.60;;;;;;;14.75;84.86;101737.50;4996812;28;20030;-74
2021/07/10 20:19:36;;;;;;;46.50;24.52;;;;;;;14.70;85.03;101732.59;5014232;28;20439;-74
2021/07/10 20:22:02;;;;;;;45.15;26.17;;;;;;;14.66;84.77;101736.56;5013414;28;20157;-73
2021/07/10 20:24:27;;;;;;;45.67;26.92;;;;;;;14.62;84.86;101729.81;4997142;28;20081;-73
2021/07/10 20:26:53;;;;;;;42.22;25.02;;;;;;;14.58;85.17;101723.84;5013504;28;20065;-74
2021/07/10 20:29:18;;;;;;;43.63;23.92;;;;;;;14.53;85.27;101730.66;4996848;28;20390;-74
2021/07/10 20:31:44;;;;;;;41.58;23.75;;;;;;;14.49;85.21;101739.94;5014162;28;20107;-73
2021/07/10 20:34:09;;;;;;;40.70;22.25;;;;;;;14.42;84.97;101737.84;5013458;28;20083;-73
2021/07/10 20:36:35;;;;;;;50.55;25.63;;;;;;;14.38;85.68;101739.09;5013795;28;20049;-74
2021/07/10 20:39:01;;;;;;;43.33;24.85;;;;;;;14.32;85.71;101725.47;5013510;28;20121;-74
2021/07/10 20:41:28;;;;;;;50.08;23.55;;;;;;;14.25;85.31;101736.69;5013917;28;20076;-73
2021/07/10 20:43:56;;;;;;;45.20;24.35;;;;;;;14.20;85.37;101728.25;5012978;28;20048;-74
2021/07/10 20:46:21;;;;;;;50.50;27.20;;;;;;;14.16;85.28;101729.53;5013844;28;20065;-74
2021/07/10 20:48:47;;;;;;;48.30;25.33;;;;;;;14.12;85.70;101730.78;5013763;28;20117;-73